Terminal Aerodrome Forecast
Issued by NWS

Home | Current Version | Previous Version | Text Only | Print | Product List | Glossary On
Versions: 1 2 3 4 5 6 7 8 9 10 11 12 13 14 15
953
FTUS46 KPDT 060536
TAFPSC
TAF
KPSC 060536Z 0606/0706 32007KT P6SM VCSH BKN070 BKN100
      TEMPO 0607/0610 -RA BKN060 BKN100
     FM061000 VRB06KT P6SM SCT060 BKN100
     FM061600 32008KT P6SM SCT100 BKN250
     FM062100 36012G22KT P6SM SCT100 SCT250
     FM070400 36008KT P6SM SCT100 BKN250=

USA.gov is the U.S. government's official web portal to all federal, state and local government web resources and services.